createdAt,value
2023-05-15T00:00:46.034Z,87805.00
2023-05-15T00:01:46.056Z,87803.00
2023-05-15T00:02:46.254Z,87801.00
2023-05-15T00:03:46.194Z,87803.00
2023-05-15T00:04:46.164Z,87801.00
2023-05-15T00:05:46.166Z,87803.00
2023-05-15T00:06:46.194Z,87801.00
2023-05-15T00:07:46.198Z,87799.00
2023-05-15T00:08:46.240Z,87801.00
2023-05-15T00:09:46.256Z,87797.00
2023-05-15T00:10:54.095Z,87799.00
2023-05-15T00:11:47.299Z,87799.00
2023-05-15T00:12:46.306Z,87799.00
2023-05-15T00:13:46.346Z,87799.00
2023-05-15T00:14:46.353Z,87797.00
2023-05-15T00:15:46.407Z,87797.00
2023-05-15T00:16:46.389Z,87797.00
2023-05-15T00:17:46.484Z,87799.00
2023-05-15T00:18:46.495Z,87797.00
2023-05-15T00:19:46.498Z,87799.00
2023-05-15T00:20:46.484Z,87797.00
2023-05-15T00:21:46.508Z,87799.00
2023-05-15T00:22:46.530Z,87797.00
2023-05-15T00:23:46.554Z,87795.00
2023-05-15T00:24:46.562Z,87795.00
2023-05-15T00:25:46.624Z,87795.00
2023-05-15T00:26:46.604Z,87797.00
2023-05-15T00:27:46.616Z,87797.00
2023-05-15T00:28:46.651Z,87797.00
2023-05-15T00:29:46.718Z,87797.00
2023-05-15T00:30:46.759Z,87797.00
2023-05-15T00:31:46.871Z,87795.00
2023-05-15T00:32:46.893Z,87795.00
2023-05-15T00:33:46.918Z,87793.00
2023-05-15T00:34:46.963Z,87791.00
2023-05-15T00:35:47.032Z,87791.00
2023-05-15T00:36:47.073Z,87791.00
2023-05-15T00:37:47.141Z,87791.00
2023-05-15T00:38:47.172Z,87793.00
2023-05-15T00:39:47.245Z,87791.00
2023-05-15T00:40:47.286Z,87789.00
2023-05-15T00:41:47.346Z,87791.00
2023-05-15T00:42:47.387Z,87793.00
2023-05-15T00:43:47.454Z,87793.00
2023-05-15T00:44:47.491Z,87793.00
2023-05-15T00:45:47.559Z,87793.00
2023-05-15T00:46:47.650Z,87795.00
2023-05-15T00:47:47.727Z,87793.00
2023-05-15T00:48:47.705Z,87795.00
2023-05-15T00:49:47.752Z,87793.00
2023-05-15T00:50:47.808Z,87791.00
2023-05-15T00:51:47.842Z,87791.00
2023-05-15T00:52:47.911Z,87791.00
2023-05-15T00:53:48.051Z,87787.00
2023-05-15T00:54:48.022Z,87791.00
2023-05-15T00:55:48.078Z,87789.00
2023-05-15T00:56:48.134Z,87789.00
2023-05-15T00:57:48.187Z,87789.00
2023-05-15T00:58:48.199Z,87787.00
2023-05-15T00:59:48.258Z,87785.00
2023-05-15T01:00:48.376Z,87787.00
2023-05-15T01:01:48.370Z,87785.00
2023-05-15T01:02:48.482Z,87789.00
2023-05-15T01:03:48.489Z,87787.00
2023-05-15T01:04:48.554Z,87787.00
2023-05-15T01:05:48.522Z,87785.00
2023-05-15T01:06:48.490Z,87785.00
2023-05-15T01:07:48.600Z,87781.00
2023-05-15T01:08:48.513Z,87781.00
2023-05-15T01:09:48.521Z,87785.00
2023-05-15T01:10:48.536Z,87787.00
2023-05-15T01:11:48.586Z,87789.00
2023-05-15T01:12:48.574Z,87787.00
2023-05-15T01:13:48.595Z,87787.00
2023-05-15T01:14:48.671Z,87785.00
2023-05-15T01:15:48.644Z,87787.00
2023-05-15T01:16:48.699Z,87781.00
2023-05-15T01:17:48.705Z,87783.00
2023-05-15T01:18:48.757Z,87783.00
2023-05-15T01:19:48.772Z,87785.00
2023-05-15T01:20:48.741Z,87779.00
2023-05-15T01:21:48.757Z,87783.00
2023-05-15T01:22:48.786Z,87781.00
2023-05-15T01:23:48.788Z,87783.00
2023-05-15T01:24:48.813Z,87785.00
2023-05-15T01:25:48.849Z,87777.00
2023-05-15T01:26:48.878Z,87777.00
2023-05-15T01:27:48.885Z,87781.00
2023-05-15T01:28:48.905Z,87781.00
2023-05-15T01:29:48.929Z,87785.00
2023-05-15T01:30:48.974Z,87785.00
2023-05-15T01:31:49.020Z,87781.00
2023-05-15T01:32:49.057Z,87787.00
2023-05-15T01:33:49.008Z,87787.00
2023-05-15T01:34:49.056Z,87785.00
2023-05-15T01:35:49.116Z,87787.00
2023-05-15T01:36:49.176Z,87785.00
2023-05-15T01:37:49.229Z,87783.00
2023-05-15T01:38:49.282Z,87785.00
2023-05-15T01:39:49.367Z,87785.00
2023-05-15T01:40:49.399Z,87783.00
2023-05-15T01:41:49.440Z,87783.00
2023-05-15T01:42:49.501Z,87785.00
2023-05-15T01:43:49.570Z,87785.00
2023-05-15T01:44:49.632Z,87785.00
2023-05-15T01:45:49.739Z,87787.00
2023-05-15T01:46:49.841Z,87785.00
2023-05-15T01:47:49.824Z,87785.00
2023-05-15T01:48:49.873Z,87783.00
2023-05-15T01:49:49.911Z,87785.00
2023-05-15T01:50:49.986Z,87787.00
2023-05-15T01:51:50.035Z,87785.00
2023-05-15T01:52:50.090Z,87783.00
2023-05-15T01:53:50.163Z,87785.00
2023-05-15T01:54:50.214Z,87785.00
2023-05-15T01:55:50.268Z,87783.00
2023-05-15T01:56:50.314Z,87785.00
2023-05-15T01:57:50.395Z,87787.00
2023-05-15T01:58:50.438Z,87787.00
2023-05-15T01:59:50.491Z,87787.00
2023-05-15T02:00:50.560Z,87789.00
2023-05-15T02:01:50.712Z,87789.00
2023-05-15T02:02:50.728Z,87793.00
2023-05-15T02:03:50.894Z,87793.00
2023-05-15T02:04:50.810Z,87791.00
2023-05-15T02:05:50.839Z,87791.00
2023-05-15T02:06:50.903Z,87789.00
2023-05-15T02:07:50.960Z,87791.00
2023-05-15T02:08:51.041Z,87787.00
2023-05-15T02:09:51.067Z,87787.00
2023-05-15T02:10:51.141Z,87787.00
2023-05-15T02:11:51.174Z,87789.00
2023-05-15T02:12:51.222Z,87789.00
2023-05-15T02:13:51.281Z,87791.00
2023-05-15T02:14:51.353Z,87793.00
2023-05-15T02:15:51.422Z,87793.00
2023-05-15T02:16:51.480Z,87791.00
2023-05-15T02:17:51.543Z,87793.00
2023-05-15T02:18:51.599Z,87791.00
2023-05-15T02:19:51.637Z,87793.00
2023-05-15T02:20:51.713Z,87793.00
2023-05-15T02:21:51.749Z,87795.00
2023-05-15T02:22:51.813Z,87795.00
2023-05-15T02:23:51.884Z,87795.00
2023-05-15T02:24:51.950Z,87791.00
2023-05-15T02:25:51.986Z,87791.00
2023-05-15T02:26:52.055Z,87791.00
2023-05-15T02:27:52.096Z,87791.00
2023-05-15T02:28:52.159Z,87791.00
2023-05-15T02:29:52.228Z,87791.00
2023-05-15T02:30:52.293Z,87787.00
2023-05-15T02:31:52.340Z,87791.00
2023-05-15T02:32:52.440Z,87787.00
2023-05-15T02:33:52.446Z,87789.00
2023-05-15T02:34:52.523Z,87785.00
2023-05-15T02:35:52.592Z,87785.00
2023-05-15T02:36:52.656Z,87787.00
2023-05-15T02:37:52.699Z,87781.00
2023-05-15T02:38:52.756Z,87781.00
2023-05-15T02:39:52.814Z,87781.00
2023-05-15T02:40:52.871Z,87781.00
2023-05-15T02:41:52.922Z,87781.00
2023-05-15T02:42:52.984Z,87783.00
2023-05-15T02:43:53.041Z,87785.00
2023-05-15T02:44:53.117Z,87785.00
2023-05-15T02:45:53.182Z,87785.00
2023-05-15T02:46:53.220Z,87783.00
2023-05-15T02:47:53.431Z,87785.00
2023-05-15T02:48:53.325Z,87787.00
2023-05-15T02:49:53.414Z,87787.00
2023-05-15T02:50:53.461Z,87789.00
2023-05-15T02:51:53.505Z,87789.00
2023-05-15T02:52:53.573Z,87791.00
2023-05-15T02:53:53.659Z,87789.00
2023-05-15T02:54:53.689Z,87791.00
2023-05-15T02:55:53.757Z,87793.00
2023-05-15T02:56:53.835Z,87791.00
2023-05-15T02:57:53.874Z,87793.00
2023-05-15T02:58:53.936Z,87793.00
2023-05-15T02:59:54.001Z,87793.00
2023-05-15T03:00:54.178Z,87793.00
2023-05-15T03:01:54.122Z,87793.00
2023-05-15T03:02:54.194Z,87793.00
2023-05-15T03:03:54.210Z,87793.00
2023-05-15T03:04:54.421Z,87793.00
2023-05-15T03:05:54.240Z,87795.00
2023-05-15T03:06:54.274Z,87795.00
2023-05-15T03:07:54.330Z,87793.00
2023-05-15T03:08:54.326Z,87791.00
2023-05-15T03:09:54.350Z,87789.00
2023-05-15T03:10:54.374Z,87791.00
2023-05-15T03:11:54.407Z,87793.00
2023-05-15T03:12:54.427Z,87791.00
2023-05-15T03:13:54.456Z,87793.00
2023-05-15T03:14:54.486Z,87793.00
2023-05-15T03:15:54.517Z,87795.00
2023-05-15T03:16:54.632Z,87799.00
2023-05-15T03:17:54.609Z,87799.00
2023-05-15T03:18:54.850Z,87801.00
2023-05-15T03:19:54.697Z,87801.00
2023-05-15T03:20:54.728Z,87803.00
2023-05-15T03:21:54.785Z,87801.00
2023-05-15T03:22:54.890Z,87803.00
2023-05-15T03:23:54.956Z,87803.00
2023-05-15T03:24:54.967Z,87803.00
2023-05-15T03:25:55.106Z,87805.00
2023-05-15T03:26:55.142Z,87803.00
2023-05-15T03:27:55.221Z,87805.00
2023-05-15T03:28:55.205Z,87805.00
2023-05-15T03:29:55.273Z,87805.00
2023-05-15T03:30:55.330Z,87803.00
2023-05-15T03:31:55.432Z,87803.00
2023-05-15T03:32:55.468Z,87799.00
2023-05-15T03:33:55.523Z,87803.00
2023-05-15T03:34:55.565Z,87801.00
2023-05-15T03:35:55.645Z,87801.00
2023-05-15T03:36:55.733Z,87801.00
2023-05-15T03:37:55.753Z,87799.00
2023-05-15T03:38:55.834Z,87801.00
2023-05-15T03:39:55.893Z,87799.00
2023-05-15T03:40:55.945Z,87801.00
2023-05-15T03:41:56.009Z,87803.00
2023-05-15T03:42:56.061Z,87803.00
2023-05-15T03:43:56.117Z,87803.00
2023-05-15T03:44:56.224Z,87805.00
2023-05-15T03:45:56.271Z,87807.00
2023-05-15T03:46:56.495Z,87805.00
2023-05-15T03:47:56.393Z,87807.00
2023-05-15T03:48:56.443Z,87807.00
2023-05-15T03:49:56.513Z,87807.00
2023-05-15T03:50:56.535Z,87811.00
2023-05-15T03:51:56.604Z,87809.00
2023-05-15T03:52:56.657Z,87805.00
2023-05-15T03:53:56.653Z,87807.00
2023-05-15T03:54:56.663Z,87811.00
2023-05-15T03:55:56.707Z,87813.00
2023-05-15T03:56:56.717Z,87813.00
2023-05-15T03:57:56.740Z,87815.00
2023-05-15T03:58:56.776Z,87815.00
2023-05-15T03:59:56.801Z,87815.00
2023-05-15T04:00:56.810Z,87817.00
2023-05-15T04:02:04.799Z,87815.00
2023-05-15T04:02:57.937Z,87815.00
2023-05-15T04:03:56.885Z,87815.00
2023-05-15T04:04:56.958Z,87815.00
2023-05-15T04:05:56.958Z,87815.00
2023-05-15T04:06:56.961Z,87813.00
2023-05-15T04:07:56.988Z,87809.00
2023-05-15T04:08:57.006Z,87811.00
2023-05-15T04:09:57.026Z,87813.00
2023-05-15T04:10:57.046Z,87813.00
2023-05-15T04:11:57.083Z,87813.00
2023-05-15T04:12:57.105Z,87817.00
2023-05-15T04:13:57.129Z,87815.00
2023-05-15T04:14:57.142Z,87809.00
2023-05-15T04:15:57.202Z,87811.00
2023-05-15T04:16:57.197Z,87809.00
2023-05-15T04:17:57.284Z,87809.00
2023-05-15T04:18:57.256Z,87813.00
2023-05-15T04:19:57.259Z,87817.00
2023-05-15T04:20:57.285Z,87819.00
2023-05-15T04:21:57.323Z,87824.00
2023-05-15T04:22:57.342Z,87821.00
2023-05-15T04:23:57.360Z,87822.00
2023-05-15T04:24:57.384Z,87822.00
2023-05-15T04:25:57.415Z,87826.00
2023-05-15T04:26:57.494Z,87832.00
2023-05-15T04:27:57.457Z,87826.00
2023-05-15T04:29:58.544Z,87828.00
2023-05-15T04:30:57.525Z,87830.00
2023-05-15T04:31:57.589Z,87830.00
2023-05-15T04:32:57.644Z,87828.00
2023-05-15T04:33:57.618Z,87832.00
2023-05-15T04:34:57.637Z,87830.00
2023-05-15T04:35:57.652Z,87832.00
2023-05-15T04:36:57.701Z,87832.00
2023-05-15T04:37:57.721Z,87834.00
2023-05-15T04:38:57.740Z,87832.00
2023-05-15T04:39:57.763Z,87830.00
2023-05-15T04:40:57.786Z,87836.00
2023-05-15T04:41:57.815Z,87836.00
2023-05-15T04:42:57.846Z,87838.00
2023-05-15T04:43:57.873Z,87838.00
2023-05-15T04:44:57.928Z,87838.00
2023-05-15T04:45:58.038Z,87836.00
2023-05-15T04:46:58.069Z,87840.00
2023-05-15T04:47:58.141Z,87834.00
2023-05-15T04:48:58.192Z,87834.00
2023-05-15T04:49:58.290Z,87834.00
2023-05-15T04:50:58.338Z,87832.00
2023-05-15T04:51:58.364Z,87828.00
2023-05-15T04:52:58.436Z,87830.00
2023-05-15T04:53:58.446Z,87830.00
2023-05-15T04:54:58.468Z,87828.00
2023-05-15T04:55:58.494Z,87826.00
2023-05-15T04:56:58.574Z,87828.00
2023-05-15T04:57:58.653Z,87828.00
2023-05-15T04:58:58.607Z,87828.00
2023-05-15T04:59:58.622Z,87828.00
2023-05-15T05:00:58.680Z,87826.00
2023-05-15T05:01:58.840Z,87828.00
2023-05-15T05:02:58.685Z,87828.00
2023-05-15T05:03:58.750Z,87828.00
2023-05-15T05:04:58.698Z,87830.00
2023-05-15T05:05:58.715Z,87830.00
2023-05-15T05:06:58.755Z,87830.00
2023-05-15T05:07:58.778Z,87832.00
2023-05-15T05:08:58.834Z,87830.00
2023-05-15T05:09:58.833Z,87832.00
2023-05-15T05:10:58.880Z,87832.00
2023-05-15T05:11:58.891Z,87834.00
2023-05-15T05:12:58.907Z,87836.00
2023-05-15T05:13:58.926Z,87836.00
2023-05-15T05:14:58.974Z,87840.00
2023-05-15T05:15:59.037Z,87842.00
2023-05-15T05:16:59.078Z,87844.00
2023-05-15T05:17:59.147Z,87846.00
2023-05-15T05:18:59.243Z,87846.00
2023-05-15T05:19:59.248Z,87848.00
2023-05-15T05:20:59.326Z,87848.00
2023-05-15T05:21:59.349Z,87846.00
2023-05-15T05:22:59.359Z,87846.00
2023-05-15T05:23:59.369Z,87848.00
2023-05-15T05:24:59.407Z,87848.00
2023-05-15T05:25:59.440Z,87850.00
2023-05-15T05:26:59.465Z,87846.00
2023-05-15T05:27:59.472Z,87848.00
2023-05-15T05:28:59.510Z,87846.00
2023-05-15T05:29:59.541Z,87844.00
2023-05-15T05:30:59.591Z,87842.00
2023-05-15T05:31:59.641Z,87846.00
2023-05-15T05:32:59.671Z,87846.00
2023-05-15T05:33:59.668Z,87852.00
2023-05-15T05:34:59.666Z,87854.00
2023-05-15T05:35:59.655Z,87860.00
2023-05-15T05:36:59.696Z,87856.00
2023-05-15T05:37:59.709Z,87858.00
2023-05-15T05:38:59.740Z,87854.00
2023-05-15T05:39:59.765Z,87858.00
2023-05-15T05:40:59.799Z,87858.00
2023-05-15T05:41:59.835Z,87858.00
2023-05-15T05:42:59.851Z,87860.00
2023-05-15T05:43:59.876Z,87868.00
2023-05-15T05:44:59.887Z,87870.00
2023-05-15T05:45:59.952Z,87868.00
2023-05-15T05:46:59.980Z,87870.00
2023-05-15T05:47:59.995Z,87872.00
2023-05-15T05:48:59.982Z,87872.00
2023-05-15T05:50:00.001Z,87874.00
2023-05-15T05:51:00.035Z,87872.00
2023-05-15T05:52:00.072Z,87872.00
2023-05-15T05:53:00.139Z,87872.00
2023-05-15T05:54:00.140Z,87876.00
2023-05-15T05:55:00.075Z,87874.00
2023-05-15T05:56:00.673Z,87877.00
2023-05-15T05:57:00.139Z,87876.00
2023-05-15T05:58:00.163Z,87876.00
2023-05-15T05:59:00.166Z,87877.00
2023-05-15T06:00:00.186Z,87879.00
2023-05-15T06:01:00.177Z,87879.00
2023-05-15T06:02:00.412Z,87877.00
2023-05-15T06:03:00.379Z,87881.00
2023-05-15T06:04:00.393Z,87883.00
2023-05-15T06:05:00.265Z,87883.00
2023-05-15T06:06:00.260Z,87883.00
2023-05-15T06:07:00.338Z,87883.00
2023-05-15T06:08:00.432Z,87883.00
2023-05-15T06:09:00.529Z,87883.00
2023-05-15T06:10:00.588Z,87885.00
2023-05-15T06:11:00.644Z,87885.00
2023-05-15T06:12:00.786Z,87885.00
2023-05-15T06:13:00.810Z,87885.00
2023-05-15T06:14:00.893Z,87889.00
2023-05-15T06:15:00.956Z,87891.00
2023-05-15T06:16:01.060Z,87887.00
2023-05-15T06:17:01.079Z,87891.00
2023-05-15T06:18:01.189Z,87893.00
2023-05-15T06:19:01.152Z,87899.00
2023-05-15T06:20:01.076Z,87899.00
2023-05-15T06:21:01.095Z,87895.00
2023-05-15T06:22:01.144Z,87893.00
2023-05-15T06:23:01.107Z,87891.00
2023-05-15T06:24:01.113Z,87893.00
2023-05-15T06:25:01.120Z,87897.00
2023-05-15T06:26:02.200Z,87897.00
2023-05-15T06:27:01.246Z,87897.00
2023-05-15T06:28:01.325Z,87899.00
2023-05-15T06:29:01.397Z,87895.00
2023-05-15T06:30:01.456Z,87895.00
2023-05-15T06:31:01.539Z,87899.00
2023-05-15T06:32:01.576Z,87897.00
2023-05-15T06:33:01.712Z,87899.00
2023-05-15T06:34:01.735Z,87895.00
2023-05-15T06:35:01.772Z,87899.00
2023-05-15T06:36:01.745Z,87897.00
2023-05-15T06:37:01.715Z,87897.00
2023-05-15T06:38:01.715Z,87897.00
2023-05-15T06:39:01.743Z,87895.00
2023-05-15T06:40:01.765Z,87897.00
2023-05-15T06:41:01.808Z,87897.00
2023-05-15T06:42:01.784Z,87897.00
2023-05-15T06:43:01.735Z,87897.00
2023-05-15T06:44:01.775Z,87897.00
2023-05-15T06:45:01.758Z,87901.00
2023-05-15T06:46:02.757Z,87899.00
2023-05-15T06:47:01.987Z,87901.00
2023-05-15T06:48:02.169Z,87903.00
2023-05-15T06:49:01.946Z,87899.00
2023-05-15T06:50:02.129Z,87897.00
2023-05-15T06:51:02.041Z,87897.00
2023-05-15T06:52:03.164Z,87897.00
2023-05-15T06:53:02.113Z,87895.00
2023-05-15T06:54:02.188Z,87897.00
2023-05-15T06:55:02.194Z,87899.00
2023-05-15T06:56:02.214Z,87899.00
2023-05-15T06:57:02.319Z,87901.00
2023-05-15T06:58:02.341Z,87899.00
2023-05-15T06:59:02.364Z,87901.00
2023-05-15T07:00:02.379Z,87903.00
2023-05-15T07:01:02.418Z,87903.00
2023-05-15T07:02:02.568Z,87905.00
2023-05-15T07:03:02.576Z,87903.00
2023-05-15T07:04:02.544Z,87903.00
2023-05-15T07:05:02.602Z,87905.00
2023-05-15T07:06:02.824Z,87905.00
2023-05-15T07:07:02.628Z,87903.00
2023-05-15T07:08:02.693Z,87901.00
2023-05-15T07:09:02.795Z,87901.00
2023-05-15T07:10:02.713Z,87901.00
2023-05-15T07:11:02.754Z,87901.00
2023-05-15T07:12:02.764Z,87903.00
2023-05-15T07:13:02.793Z,87905.00
2023-05-15T07:14:02.842Z,87909.00
2023-05-15T07:15:02.838Z,87907.00
2023-05-15T07:16:02.866Z,87911.00
2023-05-15T07:17:02.933Z,87909.00
2023-05-15T07:18:02.986Z,87909.00
2023-05-15T07:19:02.955Z,87911.00
2023-05-15T07:20:02.875Z,87911.00
2023-05-15T07:21:02.873Z,87913.00
2023-05-15T07:22:03.598Z,87913.00
2023-05-15T07:23:02.871Z,87915.00
2023-05-15T07:24:02.860Z,87915.00
2023-05-15T07:25:02.903Z,87913.00
2023-05-15T07:26:02.852Z,87913.00
2023-05-15T07:27:02.837Z,87915.00
2023-05-15T07:28:02.831Z,87917.00
2023-05-15T07:29:02.830Z,87915.00
2023-05-15T07:30:02.929Z,87915.00
2023-05-15T07:31:03.128Z,87913.00
2023-05-15T07:32:02.878Z,87911.00
2023-05-15T07:33:02.846Z,87913.00
2023-05-15T07:34:02.794Z,87915.00
2023-05-15T07:35:02.771Z,87915.00
2023-05-15T07:36:02.773Z,87921.00
2023-05-15T07:37:03.216Z,87923.00
2023-05-15T07:38:02.848Z,87923.00
2023-05-15T07:39:02.877Z,87924.00
2023-05-15T07:40:02.854Z,87926.00
2023-05-15T07:41:02.918Z,87924.00
2023-05-15T07:42:02.740Z,87921.00
2023-05-15T07:43:02.979Z,87923.00
2023-05-15T07:44:03.527Z,87921.00
2023-05-15T07:45:02.701Z,87926.00
2023-05-15T07:46:02.726Z,87923.00
2023-05-15T07:47:02.701Z,87921.00
2023-05-15T07:48:02.785Z,87924.00
2023-05-15T07:49:02.917Z,87923.00
2023-05-15T07:50:02.889Z,87924.00
2023-05-15T07:51:02.960Z,87923.00
2023-05-15T07:52:03.005Z,87921.00
2023-05-15T07:53:03.722Z,87919.00
2023-05-15T07:54:03.072Z,87919.00
2023-05-15T07:55:03.111Z,87921.00
2023-05-15T07:56:03.066Z,87921.00
2023-05-15T07:57:03.071Z,87921.00
2023-05-15T07:58:03.086Z,87923.00
2023-05-15T07:59:03.186Z,87923.00
2023-05-15T08:00:03.122Z,87923.00
2023-05-15T08:01:03.140Z,87919.00
2023-05-15T08:02:03.148Z,87919.00
2023-05-15T08:03:03.245Z,87921.00
2023-05-15T08:04:03.231Z,87917.00
2023-05-15T08:05:03.129Z,87921.00
2023-05-15T08:06:03.704Z,87917.00
2023-05-15T08:07:03.154Z,87917.00
2023-05-15T08:08:03.161Z,87915.00
2023-05-15T08:09:03.164Z,87913.00
2023-05-15T08:10:03.424Z,87913.00
2023-05-15T08:11:03.315Z,87909.00
2023-05-15T08:12:03.210Z,87911.00
2023-05-15T08:13:03.271Z,87905.00
2023-05-15T08:14:03.230Z,87903.00
2023-05-15T08:15:03.439Z,87901.00
2023-05-15T08:16:03.321Z,87897.00
2023-05-15T08:17:03.225Z,87897.00
2023-05-15T08:18:03.287Z,87897.00
2023-05-15T08:19:03.361Z,87897.00
2023-05-15T08:20:03.246Z,87895.00
2023-05-15T08:21:04.657Z,87895.00
2023-05-15T08:22:03.277Z,87895.00
2023-05-15T08:23:03.292Z,87893.00
2023-05-15T08:24:03.287Z,87895.00
2023-05-15T08:25:03.284Z,87893.00
2023-05-15T08:26:03.294Z,87893.00
2023-05-15T08:27:03.297Z,87889.00
2023-05-15T08:28:03.316Z,87889.00
2023-05-15T08:29:03.370Z,87889.00
2023-05-15T08:30:04.194Z,87889.00
2023-05-15T08:31:03.473Z,87889.00
2023-05-15T08:32:03.458Z,87889.00
2023-05-15T08:33:03.566Z,87889.00
2023-05-15T08:34:03.476Z,87891.00
2023-05-15T08:35:03.497Z,87891.00
2023-05-15T08:36:03.561Z,87891.00
2023-05-15T08:37:03.514Z,87889.00
2023-05-15T08:38:03.517Z,87889.00
2023-05-15T08:39:03.550Z,87889.00
2023-05-15T08:40:03.556Z,87889.00
2023-05-15T08:41:03.553Z,87887.00
2023-05-15T08:42:03.569Z,87889.00
2023-05-15T08:43:03.558Z,87883.00
2023-05-15T08:44:03.588Z,87879.00
2023-05-15T08:45:03.654Z,87876.00
2023-05-15T08:46:03.592Z,87874.00
2023-05-15T08:47:03.735Z,87877.00
2023-05-15T08:48:03.684Z,87877.00
2023-05-15T08:49:03.707Z,87874.00
2023-05-15T08:50:03.745Z,87876.00
2023-05-15T08:51:03.758Z,87876.00
2023-05-15T08:52:03.753Z,87876.00
2023-05-15T08:53:03.681Z,87877.00
2023-05-15T08:54:03.714Z,87876.00
2023-05-15T08:55:03.682Z,87879.00
2023-05-15T08:56:03.727Z,87877.00
2023-05-15T08:57:03.723Z,87879.00
2023-05-15T08:58:03.723Z,87879.00
2023-05-15T08:59:03.754Z,87879.00
2023-05-15T09:00:03.862Z,87877.00
2023-05-15T09:01:03.808Z,87881.00
2023-05-15T09:02:03.882Z,87879.00
2023-05-15T09:03:04.015Z,87879.00
2023-05-15T09:04:03.901Z,87876.00
2023-05-15T09:05:03.839Z,87877.00
2023-05-15T09:06:03.919Z,87877.00
2023-05-15T09:07:03.876Z,87877.00
2023-05-15T09:08:03.913Z,87877.00
2023-05-15T09:09:03.945Z,87872.00
2023-05-15T09:10:03.980Z,87876.00
2023-05-15T09:11:03.951Z,87874.00
2023-05-15T09:12:03.973Z,87876.00
2023-05-15T09:13:03.980Z,87876.00
2023-05-15T09:14:03.979Z,87879.00
2023-05-15T09:15:03.980Z,87881.00
2023-05-15T09:16:03.997Z,87879.00
2023-05-15T09:17:04.097Z,87883.00
2023-05-15T09:18:04.127Z,87881.00
2023-05-15T09:19:04.043Z,87881.00
2023-05-15T09:20:04.030Z,87879.00
2023-05-15T09:21:04.029Z,87879.00
2023-05-15T09:22:04.057Z,87877.00
2023-05-15T09:23:04.079Z,87877.00
2023-05-15T09:24:04.094Z,87877.00
2023-05-15T09:25:04.080Z,87876.00
2023-05-15T09:26:04.119Z,87874.00
2023-05-15T09:27:04.110Z,87874.00
2023-05-15T09:28:04.117Z,87870.00
2023-05-15T09:29:04.093Z,87868.00
2023-05-15T09:30:04.348Z,87866.00
2023-05-15T09:31:04.181Z,87866.00
2023-05-15T09:32:04.185Z,87862.00
2023-05-15T09:33:04.193Z,87858.00
2023-05-15T09:34:04.156Z,87856.00
2023-05-15T09:35:04.173Z,87858.00
2023-05-15T09:36:04.181Z,87858.00
2023-05-15T09:37:04.194Z,87860.00
2023-05-15T09:38:04.209Z,87858.00
2023-05-15T09:39:04.214Z,87860.00
2023-05-15T09:40:04.233Z,87860.00
2023-05-15T09:41:04.282Z,87860.00
2023-05-15T09:42:04.345Z,87862.00
2023-05-15T09:43:04.280Z,87866.00
2023-05-15T09:44:04.274Z,87866.00
2023-05-15T09:45:04.311Z,87866.00
2023-05-15T09:46:04.420Z,87864.00
2023-05-15T09:47:04.423Z,87866.00
2023-05-15T09:48:04.437Z,87866.00
2023-05-15T09:49:04.407Z,87864.00
2023-05-15T09:50:04.373Z,87866.00
2023-05-15T09:51:04.383Z,87864.00
2023-05-15T09:52:04.389Z,87866.00
2023-05-15T09:53:04.385Z,87866.00
2023-05-15T09:54:04.392Z,87864.00
2023-05-15T09:55:04.426Z,87864.00
2023-05-15T09:56:04.447Z,87866.00
2023-05-15T09:57:04.395Z,87862.00
2023-05-15T09:58:04.433Z,87864.00
2023-05-15T09:59:04.425Z,87864.00
2023-05-15T10:00:04.407Z,87864.00
2023-05-15T10:01:04.532Z,87862.00
2023-05-15T10:02:04.439Z,87862.00
2023-05-15T10:03:04.474Z,87864.00
2023-05-15T10:04:04.442Z,87866.00
2023-05-15T10:05:04.504Z,87866.00
2023-05-15T10:06:04.496Z,87866.00
2023-05-15T10:07:04.440Z,87866.00
2023-05-15T10:08:04.447Z,87864.00
2023-05-15T10:09:04.446Z,87866.00
2023-05-15T10:10:04.461Z,87862.00
2023-05-15T10:11:04.482Z,87866.00
2023-05-15T10:12:04.459Z,87860.00
2023-05-15T10:13:04.557Z,87862.00
2023-05-15T10:14:04.496Z,87860.00
2023-05-15T10:15:04.458Z,87858.00
2023-05-15T10:16:04.510Z,87856.00
2023-05-15T10:17:04.562Z,87852.00
2023-05-15T10:18:05.005Z,87852.00
2023-05-15T10:19:05.187Z,87854.00
2023-05-15T10:20:04.600Z,87852.00
2023-05-15T10:21:04.694Z,87854.00
2023-05-15T10:22:04.638Z,87854.00
2023-05-15T10:23:04.644Z,87854.00
2023-05-15T10:24:04.657Z,87850.00
2023-05-15T10:25:04.842Z,87846.00
2023-05-15T10:26:04.711Z,87852.00
2023-05-15T10:27:04.723Z,87854.00
2023-05-15T10:28:04.980Z,87848.00
2023-05-15T10:29:04.743Z,87848.00
2023-05-15T10:30:04.769Z,87850.00
2023-05-15T10:31:04.805Z,87850.00
2023-05-15T10:32:04.780Z,87850.00
2023-05-15T10:33:05.784Z,87852.00
2023-05-15T10:34:04.759Z,87850.00
2023-05-15T10:35:04.908Z,87854.00
2023-05-15T10:36:04.907Z,87858.00
2023-05-15T10:37:04.873Z,87856.00
2023-05-15T10:38:04.861Z,87860.00
2023-05-15T10:39:04.869Z,87854.00
2023-05-15T10:40:04.938Z,87850.00
2023-05-15T10:41:15.767Z,87850.00
2023-05-15T10:42:06.007Z,87844.00
2023-05-15T10:43:04.987Z,87848.00
2023-05-15T10:44:04.984Z,87844.00
2023-05-15T10:45:04.991Z,87846.00
2023-05-15T10:46:05.009Z,87842.00
2023-05-15T10:47:04.997Z,87842.00
2023-05-15T10:48:05.105Z,87840.00
2023-05-15T10:49:04.950Z,87844.00
2023-05-15T10:50:04.969Z,87842.00
2023-05-15T10:51:04.968Z,87840.00
2023-05-15T10:52:04.926Z,87836.00
2023-05-15T10:53:04.949Z,87840.00
2023-05-15T10:54:04.917Z,87836.00
2023-05-15T10:55:04.926Z,87836.00
2023-05-15T10:56:04.988Z,87834.00
2023-05-15T10:57:05.009Z,87832.00
2023-05-15T10:58:05.036Z,87832.00
2023-05-15T10:59:04.993Z,87830.00
2023-05-15T11:00:04.984Z,87830.00
2023-05-15T11:01:04.986Z,87832.00
2023-05-15T11:02:04.952Z,87836.00
2023-05-15T11:03:04.983Z,87830.00
2023-05-15T11:04:05.014Z,87834.00
2023-05-15T11:05:04.961Z,87836.00
2023-05-15T11:06:04.965Z,87834.00
2023-05-15T11:07:04.944Z,87834.00
2023-05-15T11:08:04.943Z,87838.00
2023-05-15T11:09:04.940Z,87836.00
2023-05-15T11:10:06.195Z,87838.00
2023-05-15T11:11:05.072Z,87838.00
2023-05-15T11:12:05.115Z,87844.00
2023-05-15T11:13:05.198Z,87836.00
2023-05-15T11:14:05.226Z,87836.00
2023-05-15T11:15:05.422Z,87832.00
2023-05-15T11:16:05.369Z,87832.00
2023-05-15T11:17:05.524Z,87830.00
2023-05-15T11:18:05.559Z,87832.00
2023-05-15T11:19:05.581Z,87832.00
2023-05-15T11:20:05.603Z,87834.00
2023-05-15T11:21:05.671Z,87836.00
2023-05-15T11:22:06.295Z,87838.00
2023-05-15T11:23:05.792Z,87838.00
2023-05-15T11:24:05.923Z,87840.00
2023-05-15T11:25:05.920Z,87840.00
2023-05-15T11:26:05.993Z,87842.00
2023-05-15T11:27:06.077Z,87842.00
2023-05-15T11:28:06.096Z,87844.00
2023-05-15T11:29:06.213Z,87852.00
2023-05-15T11:30:06.539Z,87850.00
2023-05-15T11:31:07.073Z,87854.00
2023-05-15T11:32:06.326Z,87854.00
2023-05-15T11:33:06.433Z,87856.00
2023-05-15T11:34:06.477Z,87856.00
2023-05-15T11:35:06.549Z,87862.00
2023-05-15T11:36:06.581Z,87858.00
2023-05-15T11:37:06.671Z,87862.00
2023-05-15T11:38:06.702Z,87860.00
2023-05-15T11:39:06.795Z,87860.00
2023-05-15T11:40:06.837Z,87860.00
2023-05-15T11:41:06.899Z,87862.00
2023-05-15T11:42:06.978Z,87860.00
2023-05-15T11:43:07.045Z,87858.00
2023-05-15T11:44:07.122Z,87860.00
2023-05-15T11:45:07.174Z,87862.00
2023-05-15T11:46:07.358Z,87862.00